sensor_id;sensor_type;location;lat;lon;timestamp;P1;durP1;ratioP1;P2;durP2;ratioP2
31238;SDS011;17871;31.584;74.450;2023-04-25T00:01:48;56.88;;;18.58;;
31238;SDS011;17871;31.584;74.450;2023-04-25T00:04:19;67.88;;;20.38;;
31238;SDS011;17871;31.584;74.450;2023-04-25T00:06:50;46.28;;;18.60;;
31238;SDS011;17871;31.584;74.450;2023-04-25T00:09:20;59.45;;;20.23;;
31238;SDS011;17871;31.584;74.450;2023-04-25T00:11:49;51.58;;;18.17;;
31238;SDS011;17871;31.584;74.450;2023-04-25T00:14:18;47.58;;;18.63;;
31238;SDS011;17871;31.584;74.450;2023-04-25T00:16:47;60.55;;;19.40;;
31238;SDS011;17871;31.584;74.450;2023-04-25T00:19:20;52.15;;;17.40;;
31238;SDS011;17871;31.584;74.450;2023-04-25T00:21:49;63.28;;;17.30;;
31238;SDS011;17871;31.584;74.450;2023-04-25T00:24:19;46.63;;;18.08;;
31238;SDS011;17871;31.584;74.450;2023-04-25T00:26:48;61.17;;;17.67;;
31238;SDS011;17871;31.584;74.450;2023-04-25T00:29:17;56.72;;;17.27;;
31238;SDS011;17871;31.584;74.450;2023-04-25T00:31:46;53.67;;;16.90;;
31238;SDS011;17871;31.584;74.450;2023-04-25T00:34:18;53.92;;;18.65;;
31238;SDS011;17871;31.584;74.450;2023-04-25T00:36:47;59.75;;;17.88;;
31238;SDS011;17871;31.584;74.450;2023-04-25T00:39:16;63.00;;;19.05;;
31238;SDS011;17871;31.584;74.450;2023-04-25T00:41:45;58.25;;;19.27;;
31238;SDS011;17871;31.584;74.450;2023-04-25T00:44:21;69.00;;;17.48;;
31238;SDS011;17871;31.584;74.450;2023-04-25T00:46:52;53.78;;;18.23;;
31238;SDS011;17871;31.584;74.450;2023-04-25T00:49:22;54.72;;;18.23;;
31238;SDS011;17871;31.584;74.450;2023-04-25T00:51:51;78.03;;;19.50;;
31238;SDS011;17871;31.584;74.450;2023-04-25T00:54:20;46.60;;;18.17;;
31238;SDS011;17871;31.584;74.450;2023-04-25T00:56:50;45.30;;;19.13;;
31238;SDS011;17871;31.584;74.450;2023-04-25T00:59:19;59.97;;;18.75;;
31238;SDS011;17871;31.584;74.450;2023-04-25T01:01:49;41.33;;;16.35;;
31238;SDS011;17871;31.584;74.450;2023-04-25T01:04:18;61.20;;;19.67;;
31238;SDS011;17871;31.584;74.450;2023-04-25T01:06:48;42.00;;;15.85;;
31238;SDS011;17871;31.584;74.450;2023-04-25T01:09:18;56.22;;;17.83;;
31238;SDS011;17871;31.584;74.450;2023-04-25T01:11:48;55.53;;;17.85;;
31238;SDS011;17871;31.584;74.450;2023-04-25T01:14:19;44.38;;;18.48;;
31238;SDS011;17871;31.584;74.450;2023-04-25T01:16:49;51.42;;;17.88;;
31238;SDS011;17871;31.584;74.450;2023-04-25T01:19:19;55.83;;;18.55;;
31238;SDS011;17871;31.584;74.450;2023-04-25T01:21:49;59.00;;;19.63;;
31238;SDS011;17871;31.584;74.450;2023-04-25T01:24:19;60.33;;;19.17;;
31238;SDS011;17871;31.584;74.450;2023-04-25T01:26:49;55.17;;;17.52;;
31238;SDS011;17871;31.584;74.450;2023-04-25T01:29:23;41.63;;;18.95;;
31238;SDS011;17871;31.584;74.450;2023-04-25T01:31:53;54.58;;;18.58;;
31238;SDS011;17871;31.584;74.450;2023-04-25T01:34:22;53.95;;;18.45;;
31238;SDS011;17871;31.584;74.450;2023-04-25T01:36:51;46.50;;;19.90;;
31238;SDS011;17871;31.584;74.450;2023-04-25T01:39:22;49.63;;;18.05;;
31238;SDS011;17871;31.584;74.450;2023-04-25T01:41:52;49.65;;;18.55;;
31238;SDS011;17871;31.584;74.450;2023-04-25T01:44:24;53.95;;;19.02;;
31238;SDS011;17871;31.584;74.450;2023-04-25T01:46:53;45.97;;;16.40;;
31238;SDS011;17871;31.584;74.450;2023-04-25T01:49:22;68.45;;;21.63;;
31238;SDS011;17871;31.584;74.450;2023-04-25T01:51:52;69.75;;;26.70;;
31238;SDS011;17871;31.584;74.450;2023-04-25T01:54:21;49.65;;;18.10;;
31238;SDS011;17871;31.584;74.450;2023-04-25T01:56:51;49.00;;;17.65;;
31238;SDS011;17871;31.584;74.450;2023-04-25T01:59:21;54.88;;;17.70;;
31238;SDS011;17871;31.584;74.450;2023-04-25T02:01:59;43.05;;;18.58;;
31238;SDS011;17871;31.584;74.450;2023-04-25T02:04:34;56.03;;;18.63;;
31238;SDS011;17871;31.584;74.450;2023-04-25T02:07:03;58.00;;;19.30;;
31238;SDS011;17871;31.584;74.450;2023-04-25T02:09:44;51.65;;;17.00;;
31238;SDS011;17871;31.584;74.450;2023-04-25T02:12:15;53.70;;;17.63;;
31238;SDS011;17871;31.584;74.450;2023-04-25T02:14:53;52.42;;;18.63;;
31238;SDS011;17871;31.584;74.450;2023-04-25T02:17:47;55.03;;;17.95;;
31238;SDS011;17871;31.584;74.450;2023-04-25T02:20:17;52.83;;;18.45;;
31238;SDS011;17871;31.584;74.450;2023-04-25T02:22:48;48.35;;;17.10;;
31238;SDS011;17871;31.584;74.450;2023-04-25T02:25:20;56.75;;;16.85;;
31238;SDS011;17871;31.584;74.450;2023-04-25T02:27:50;45.85;;;16.27;;
31238;SDS011;17871;31.584;74.450;2023-04-25T02:30:19;43.65;;;15.32;;
31238;SDS011;17871;31.584;74.450;2023-04-25T02:32:51;43.00;;;16.58;;
31238;SDS011;17871;31.584;74.450;2023-04-25T02:35:21;59.40;;;18.50;;
31238;SDS011;17871;31.584;74.450;2023-04-25T02:37:53;49.33;;;17.80;;
31238;SDS011;17871;31.584;74.450;2023-04-25T02:40:23;58.88;;;21.45;;
31238;SDS011;17871;31.584;74.450;2023-04-25T02:42:53;45.05;;;16.52;;
31238;SDS011;17871;31.584;74.450;2023-04-25T02:45:25;49.13;;;16.45;;
31238;SDS011;17871;31.584;74.450;2023-04-25T02:47:55;53.17;;;17.48;;
31238;SDS011;17871;31.584;74.450;2023-04-25T02:50:24;57.40;;;17.77;;
31238;SDS011;17871;31.584;74.450;2023-04-25T02:52:54;51.38;;;18.00;;
31238;SDS011;17871;31.584;74.450;2023-04-25T02:55:28;57.85;;;19.02;;
31238;SDS011;17871;31.584;74.450;2023-04-25T02:58:00;57.17;;;16.80;;
31238;SDS011;17871;31.584;74.450;2023-04-25T03:00:39;48.88;;;16.98;;
31238;SDS011;17871;31.584;74.450;2023-04-25T03:03:08;57.42;;;16.88;;
31238;SDS011;17871;31.584;74.450;2023-04-25T03:05:37;46.47;;;17.20;;
31238;SDS011;17871;31.584;74.450;2023-04-25T03:08:06;38.70;;;16.48;;
31238;SDS011;17871;31.584;74.450;2023-04-25T03:10:38;43.70;;;16.17;;
31238;SDS011;17871;31.584;74.450;2023-04-25T03:13:09;31.83;;;16.80;;
31238;SDS011;17871;31.584;74.450;2023-04-25T03:15:40;45.50;;;17.23;;
31238;SDS011;17871;31.584;74.450;2023-04-25T03:18:09;46.80;;;17.08;;
31238;SDS011;17871;31.584;74.450;2023-04-25T03:20:39;54.35;;;18.27;;
31238;SDS011;17871;31.584;74.450;2023-04-25T03:25:41;40.75;;;16.05;;
31238;SDS011;17871;31.584;74.450;2023-04-25T03:28:11;49.00;;;19.08;;
31238;SDS011;17871;31.584;74.450;2023-04-25T03:30:40;51.70;;;18.75;;
31238;SDS011;17871;31.584;74.450;2023-04-25T03:33:09;47.75;;;16.70;;
31238;SDS011;17871;31.584;74.450;2023-04-25T03:35:38;43.67;;;17.73;;
31238;SDS011;17871;31.584;74.450;2023-04-25T03:38:07;50.15;;;17.55;;
31238;SDS011;17871;31.584;74.450;2023-04-25T03:40:39;61.78;;;29.45;;
31238;SDS011;17871;31.584;74.450;2023-04-25T03:43:28;51.90;;;16.40;;
31238;SDS011;17871;31.584;74.450;2023-04-25T03:46:02;47.42;;;17.02;;
31238;SDS011;17871;31.584;74.450;2023-04-25T03:48:32;46.03;;;17.35;;
31238;SDS011;17871;31.584;74.450;2023-04-25T03:51:02;44.05;;;16.40;;
31238;SDS011;17871;31.584;74.450;2023-04-25T03:53:38;46.20;;;16.67;;
31238;SDS011;17871;31.584;74.450;2023-04-25T03:56:39;44.20;;;18.70;;
31238;SDS011;17871;31.584;74.450;2023-04-25T03:59:17;49.45;;;15.48;;
31238;SDS011;17871;31.584;74.450;2023-04-25T04:01:46;45.38;;;18.92;;
31238;SDS011;17871;31.584;74.450;2023-04-25T04:04:15;39.92;;;16.65;;
31238;SDS011;17871;31.584;74.450;2023-04-25T04:06:44;52.92;;;17.02;;
31238;SDS011;17871;31.584;74.450;2023-04-25T04:09:18;48.28;;;17.77;;
31238;SDS011;17871;31.584;74.450;2023-04-25T04:11:48;44.70;;;16.88;;
31238;SDS011;17871;31.584;74.450;2023-04-25T04:14:17;49.42;;;17.70;;
31238;SDS011;17871;31.584;74.450;2023-04-25T04:16:50;54.42;;;17.13;;
31238;SDS011;17871;31.584;74.450;2023-04-25T04:19:21;66.50;;;18.73;;
31238;SDS011;17871;31.584;74.450;2023-04-25T04:22:00;420.75;;;48.90;;
31238;SDS011;17871;31.584;74.450;2023-04-25T04:24:29;52.58;;;17.15;;
31238;SDS011;17871;31.584;74.450;2023-04-25T04:27:05;45.17;;;16.63;;
31238;SDS011;17871;31.584;74.450;2023-04-25T04:29:54;49.50;;;16.40;;
31238;SDS011;17871;31.584;74.450;2023-04-25T04:32:29;61.13;;;16.98;;
31238;SDS011;17871;31.584;74.450;2023-04-25T04:34:58;40.00;;;15.48;;
31238;SDS011;17871;31.584;74.450;2023-04-25T04:37:27;44.90;;;15.82;;
31238;SDS011;17871;31.584;74.450;2023-04-25T04:39:58;48.40;;;17.38;;
31238;SDS011;17871;31.584;74.450;2023-04-25T04:42:40;48.38;;;17.63;;
31238;SDS011;17871;31.584;74.450;2023-04-25T04:45:21;42.60;;;15.80;;
31238;SDS011;17871;31.584;74.450;2023-04-25T04:48:08;47.00;;;15.40;;
31238;SDS011;17871;31.584;74.450;2023-04-25T04:51:09;55.97;;;17.75;;
31238;SDS011;17871;31.584;74.450;2023-04-25T04:53:53;48.90;;;16.30;;
31238;SDS011;17871;31.584;74.450;2023-04-25T04:56:49;46.05;;;14.85;;
31238;SDS011;17871;31.584;74.450;2023-04-25T04:59:35;30.90;;;14.63;;
31238;SDS011;17871;31.584;74.450;2023-04-25T05:02:23;37.03;;;14.20;;
31238;SDS011;17871;31.584;74.450;2023-04-25T05:05:23;38.22;;;14.27;;
31238;SDS011;17871;31.584;74.450;2023-04-25T05:08:13;45.85;;;15.20;;
31238;SDS011;17871;31.584;74.450;2023-04-25T05:11:00;52.45;;;13.23;;
31238;SDS011;17871;31.584;74.450;2023-04-25T05:13:36;44.40;;;15.23;;
31238;SDS011;17871;31.584;74.450;2023-04-25T05:16:25;33.08;;;12.75;;
31238;SDS011;17871;31.584;74.450;2023-04-25T05:19:15;40.28;;;13.75;;
31238;SDS011;17871;31.584;74.450;2023-04-25T05:22:20;43.17;;;13.93;;
31238;SDS011;17871;31.584;74.450;2023-04-25T05:25:10;42.88;;;13.77;;
31238;SDS011;17871;31.584;74.450;2023-04-25T05:27:58;35.30;;;14.65;;
31238;SDS011;17871;31.584;74.450;2023-04-25T05:30:39;40.63;;;12.68;;
31238;SDS011;17871;31.584;74.450;2023-04-25T05:33:27;32.17;;;11.98;;
31238;SDS011;17871;31.584;74.450;2023-04-25T05:35:56;41.42;;;12.02;;
31238;SDS011;17871;31.584;74.450;2023-04-25T05:38:26;33.88;;;12.32;;
31238;SDS011;17871;31.584;74.450;2023-04-25T05:41:11;25.63;;;12.15;;
31238;SDS011;17871;31.584;74.450;2023-04-25T05:44:02;49.88;;;13.15;;
31238;SDS011;17871;31.584;74.450;2023-04-25T05:46:38;38.05;;;14.10;;
31238;SDS011;17871;31.584;74.450;2023-04-25T05:49:27;36.80;;;11.38;;
31238;SDS011;17871;31.584;74.450;2023-04-25T05:52:16;34.05;;;11.38;;
31238;SDS011;17871;31.584;74.450;2023-04-25T05:54:50;32.08;;;11.73;;
31238;SDS011;17871;31.584;74.450;2023-04-25T05:57:20;30.77;;;10.75;;
31238;SDS011;17871;31.584;74.450;2023-04-25T05:59:55;27.25;;;10.32;;
31238;SDS011;17871;31.584;74.450;2023-04-25T06:02:38;37.58;;;11.32;;
31238;SDS011;17871;31.584;74.450;2023-04-25T06:05:12;34.67;;;12.60;;
31238;SDS011;17871;31.584;74.450;2023-04-25T06:07:41;25.98;;;12.10;;
31238;SDS011;17871;31.584;74.450;2023-04-25T06:10:11;37.10;;;10.70;;
31238;SDS011;17871;31.584;74.450;2023-04-25T06:12:41;33.55;;;10.52;;
31238;SDS011;17871;31.584;74.450;2023-04-25T06:15:12;38.08;;;9.88;;
31238;SDS011;17871;31.584;74.450;2023-04-25T06:17:55;39.13;;;12.40;;
31238;SDS011;17871;31.584;74.450;2023-04-25T06:20:25;28.42;;;9.95;;
31238;SDS011;17871;31.584;74.450;2023-04-25T06:22:57;26.63;;;9.15;;
31238;SDS011;17871;31.584;74.450;2023-04-25T06:26:04;40.17;;;8.75;;
31238;SDS011;17871;31.584;74.450;2023-04-25T06:32:49;21.95;;;8.23;;
31238;SDS011;17871;31.584;74.450;2023-04-25T06:35:19;21.08;;;7.22;;
31238;SDS011;17871;31.584;74.450;2023-04-25T06:37:49;30.40;;;7.97;;
31238;SDS011;17871;31.584;74.450;2023-04-25T06:40:22;17.25;;;7.35;;
31238;SDS011;17871;31.584;74.450;2023-04-25T06:42:52;28.08;;;8.75;;
31238;SDS011;17871;31.584;74.450;2023-04-25T06:45:59;26.98;;;8.30;;
31238;SDS011;17871;31.584;74.450;2023-04-25T06:48:31;19.35;;;7.68;;
31238;SDS011;17871;31.584;74.450;2023-04-25T06:51:00;33.45;;;8.30;;
31238;SDS011;17871;31.584;74.450;2023-04-25T06:53:30;24.90;;;8.10;;
31238;SDS011;17871;31.584;74.450;2023-04-25T06:56:02;35.72;;;8.43;;
31238;SDS011;17871;31.584;74.450;2023-04-25T06:58:49;22.60;;;7.63;;
31238;SDS011;17871;31.584;74.450;2023-04-25T07:01:24;19.58;;;6.70;;
31238;SDS011;17871;31.584;74.450;2023-04-25T07:03:54;20.67;;;6.65;;
31238;SDS011;17871;31.584;74.450;2023-04-25T07:06:24;36.00;;;7.93;;
31238;SDS011;17871;31.584;74.450;2023-04-25T07:08:55;18.55;;;6.63;;
31238;SDS011;17871;31.584;74.450;2023-04-25T07:11:24;23.05;;;6.50;;
31238;SDS011;17871;31.584;74.450;2023-04-25T07:13:53;19.08;;;7.63;;
31238;SDS011;17871;31.584;74.450;2023-04-25T07:16:23;19.45;;;6.50;;
31238;SDS011;17871;31.584;74.450;2023-04-25T07:18:52;21.38;;;7.30;;
31238;SDS011;17871;31.584;74.450;2023-04-25T07:21:21;29.10;;;6.72;;
31238;SDS011;17871;31.584;74.450;2023-04-25T07:23:51;24.27;;;7.32;;
31238;SDS011;17871;31.584;74.450;2023-04-25T07:26:25;21.08;;;8.25;;
31238;SDS011;17871;31.584;74.450;2023-04-25T07:29:15;28.45;;;7.22;;
31238;SDS011;17871;31.584;74.450;2023-04-25T07:31:44;32.10;;;6.90;;
31238;SDS011;17871;31.584;74.450;2023-04-25T07:34:14;37.88;;;8.70;;
31238;SDS011;17871;31.584;74.450;2023-04-25T07:36:43;27.35;;;6.95;;
31238;SDS011;17871;31.584;74.450;2023-04-25T07:39:13;26.92;;;6.40;;
31238;SDS011;17871;31.584;74.450;2023-04-25T07:41:43;22.20;;;7.60;;
31238;SDS011;17871;31.584;74.450;2023-04-25T07:44:18;16.48;;;6.57;;
31238;SDS011;17871;31.584;74.450;2023-04-25T07:46:48;42.47;;;8.02;;
31238;SDS011;17871;31.584;74.450;2023-04-25T07:49:22;17.40;;;6.97;;
31238;SDS011;17871;31.584;74.450;2023-04-25T07:51:52;18.27;;;6.82;;
31238;SDS011;17871;31.584;74.450;2023-04-25T07:54:22;36.13;;;7.10;;
31238;SDS011;17871;31.584;74.450;2023-04-25T07:56:58;26.65;;;5.25;;
31238;SDS011;17871;31.584;74.450;2023-04-25T07:59:29;25.58;;;5.88;;
31238;SDS011;17871;31.584;74.450;2023-04-25T08:02:01;17.67;;;5.93;;
31238;SDS011;17871;31.584;74.450;2023-04-25T08:04:31;29.25;;;6.45;;
31238;SDS011;17871;31.584;74.450;2023-04-25T08:07:06;29.95;;;6.57;;
31238;SDS011;17871;31.584;74.450;2023-04-25T08:09:51;25.02;;;7.70;;
31238;SDS011;17871;31.584;74.450;2023-04-25T08:12:31;23.52;;;6.75;;
31238;SDS011;17871;31.584;74.450;2023-04-25T08:15:00;26.23;;;7.07;;
31238;SDS011;17871;31.584;74.450;2023-04-25T08:17:34;16.95;;;5.78;;
31238;SDS011;17871;31.584;74.450;2023-04-25T08:20:05;28.17;;;6.53;;
31238;SDS011;17871;31.584;74.450;2023-04-25T08:22:35;29.73;;;6.38;;
31238;SDS011;17871;31.584;74.450;2023-04-25T08:25:22;18.58;;;7.32;;
31238;SDS011;17871;31.584;74.450;2023-04-25T08:27:51;18.23;;;5.45;;
31238;SDS011;17871;31.584;74.450;2023-04-25T08:30:21;28.23;;;6.43;;
31238;SDS011;17871;31.584;74.450;2023-04-25T08:32:51;17.52;;;6.70;;
31238;SDS011;17871;31.584;74.450;2023-04-25T08:35:37;29.70;;;6.47;;
31238;SDS011;17871;31.584;74.450;2023-04-25T08:38:07;57.97;;;8.15;;
31238;SDS011;17871;31.584;74.450;2023-04-25T08:40:38;22.60;;;7.10;;
31238;SDS011;17871;31.584;74.450;2023-04-25T08:43:15;27.75;;;6.18;;
31238;SDS011;17871;31.584;74.450;2023-04-25T08:45:48;16.63;;;6.38;;
31238;SDS011;17871;31.584;74.450;2023-04-25T08:48:32;15.10;;;5.82;;
31238;SDS011;17871;31.584;74.450;2023-04-25T08:51:04;29.85;;;5.90;;
31238;SDS011;17871;31.584;74.450;2023-04-25T08:53:41;24.67;;;7.03;;
31238;SDS011;17871;31.584;74.450;2023-04-25T08:56:20;16.15;;;6.15;;
31238;SDS011;17871;31.584;74.450;2023-04-25T08:58:51;25.00;;;5.70;;
31238;SDS011;17871;31.584;74.450;2023-04-25T09:01:21;16.63;;;5.40;;
31238;SDS011;17871;31.584;74.450;2023-04-25T09:03:53;18.83;;;6.30;;
31238;SDS011;17871;31.584;74.450;2023-04-25T09:10:35;21.00;;;5.55;;
31238;SDS011;17871;31.584;74.450;2023-04-25T09:13:07;16.38;;;5.75;;
31238;SDS011;17871;31.584;74.450;2023-04-25T09:16:03;31.80;;;5.20;;
31238;SDS011;17871;31.584;74.450;2023-04-25T09:23:18;18.38;;;6.03;;
31238;SDS011;17871;31.584;74.450;2023-04-25T09:25:52;19.05;;;5.28;;
31238;SDS011;17871;31.584;74.450;2023-04-25T09:28:25;17.63;;;5.70;;
31238;SDS011;17871;31.584;74.450;2023-04-25T09:31:00;11.40;;;5.57;;
31238;SDS011;17871;31.584;74.450;2023-04-25T09:33:43;9.98;;;4.82;;
31238;SDS011;17871;31.584;74.450;2023-04-25T09:36:15;14.45;;;6.15;;
31238;SDS011;17871;31.584;74.450;2023-04-25T09:38:59;20.88;;;5.97;;
31238;SDS011;17871;31.584;74.450;2023-04-25T09:41:33;15.45;;;5.03;;
31238;SDS011;17871;31.584;74.450;2023-04-25T09:44:08;11.10;;;4.78;;
31238;SDS011;17871;31.584;74.450;2023-04-25T09:46:37;25.98;;;5.72;;
31238;SDS011;17871;31.584;74.450;2023-04-25T09:49:19;14.18;;;5.03;;
31238;SDS011;17871;31.584;74.450;2023-04-25T09:52:01;18.60;;;6.07;;
31238;SDS011;17871;31.584;74.450;2023-04-25T09:54:43;27.42;;;5.35;;
31238;SDS011;17871;31.584;74.450;2023-04-25T09:57:18;24.60;;;4.80;;
31238;SDS011;17871;31.584;74.450;2023-04-25T09:59:53;24.75;;;4.70;;
31238;SDS011;17871;31.584;74.450;2023-04-25T10:02:28;23.48;;;4.03;;
31238;SDS011;17871;31.584;74.450;2023-04-25T10:05:05;20.52;;;4.63;;
31238;SDS011;17871;31.584;74.450;2023-04-25T10:07:38;21.65;;;4.97;;
31238;SDS011;17871;31.584;74.450;2023-04-25T10:10:14;11.88;;;4.43;;
31238;SDS011;17871;31.584;74.450;2023-04-25T10:12:44;13.68;;;4.82;;
31238;SDS011;17871;31.584;74.450;2023-04-25T10:15:13;12.13;;;4.50;;
31238;SDS011;17871;31.584;74.450;2023-04-25T10:17:43;16.90;;;4.70;;
31238;SDS011;17871;31.584;74.450;2023-04-25T10:20:13;25.13;;;4.28;;
31238;SDS011;17871;31.584;74.450;2023-04-25T10:22:44;17.10;;;4.55;;
31238;SDS011;17871;31.584;74.450;2023-04-25T10:25:16;18.75;;;4.65;;
31238;SDS011;17871;31.584;74.450;2023-04-25T10:27:45;13.13;;;3.95;;
31238;SDS011;17871;31.584;74.450;2023-04-25T10:30:14;15.73;;;5.25;;
31238;SDS011;17871;31.584;74.450;2023-04-25T10:32:44;16.15;;;5.00;;
31238;SDS011;17871;31.584;74.450;2023-04-25T10:37:58;27.30;;;4.25;;
31238;SDS011;17871;31.584;74.450;2023-04-25T10:40:40;8.02;;;4.32;;
31238;SDS011;17871;31.584;74.450;2023-04-25T10:46:00;18.92;;;4.78;;
31238;SDS011;17871;31.584;74.450;2023-04-25T10:48:30;6.25;;;3.83;;
31238;SDS011;17871;31.584;74.450;2023-04-25T10:51:09;11.05;;;4.65;;
31238;SDS011;17871;31.584;74.450;2023-04-25T10:53:56;15.13;;;4.50;;
31238;SDS011;17871;31.584;74.450;2023-04-25T10:56:26;10.05;;;4.85;;
31238;SDS011;17871;31.584;74.450;2023-04-25T11:01:41;12.75;;;4.72;;
31238;SDS011;17871;31.584;74.450;2023-04-25T11:04:33;14.98;;;4.18;;
31238;SDS011;17871;31.584;74.450;2023-04-25T11:09:42;21.60;;;5.40;;
31238;SDS011;17871;31.584;74.450;2023-04-25T11:12:14;19.20;;;3.95;;
31238;SDS011;17871;31.584;74.450;2023-04-25T11:14:45;9.25;;;4.22;;
31238;SDS011;17871;31.584;74.450;2023-04-25T11:17:14;12.93;;;4.30;;
31238;SDS011;17871;31.584;74.450;2023-04-25T11:19:43;16.23;;;4.38;;
31238;SDS011;17871;31.584;74.450;2023-04-25T11:22:12;11.30;;;4.32;;
31238;SDS011;17871;31.584;74.450;2023-04-25T11:24:41;12.05;;;4.00;;
31238;SDS011;17871;31.584;74.450;2023-04-25T11:27:10;9.63;;;4.75;;
31238;SDS011;17871;31.584;74.450;2023-04-25T11:29:40;10.18;;;4.82;;
31238;SDS011;17871;31.584;74.450;2023-04-25T11:32:09;17.80;;;5.25;;
31238;SDS011;17871;31.584;74.450;2023-04-25T11:34:38;19.10;;;5.20;;
31238;SDS011;17871;31.584;74.450;2023-04-25T11:37:07;17.98;;;5.18;;
31238;SDS011;17871;31.584;74.450;2023-04-25T11:39:36;15.40;;;4.82;;
31238;SDS011;17871;31.584;74.450;2023-04-25T11:42:05;15.43;;;4.70;;
31238;SDS011;17871;31.584;74.450;2023-04-25T11:44:40;14.85;;;4.80;;
31238;SDS011;17871;31.584;74.450;2023-04-25T11:47:09;17.98;;;4.82;;
31238;SDS011;17871;31.584;74.450;2023-04-25T11:49:38;13.77;;;5.03;;
31238;SDS011;17871;31.584;74.450;2023-04-25T11:52:07;17.90;;;6.68;;
31238;SDS011;17871;31.584;74.450;2023-04-25T11:54:37;23.80;;;5.72;;
31238;SDS011;17871;31.584;74.450;2023-04-25T11:57:06;17.10;;;5.47;;
31238;SDS011;17871;31.584;74.450;2023-04-25T11:59:35;14.98;;;4.35;;
31238;SDS011;17871;31.584;74.450;2023-04-25T12:02:04;32.70;;;5.78;;
31238;SDS011;17871;31.584;74.450;2023-04-25T12:04:34;20.08;;;5.32;;
31238;SDS011;17871;31.584;74.450;2023-04-25T12:07:04;16.90;;;5.68;;
31238;SDS011;17871;31.584;74.450;2023-04-25T12:09:38;16.17;;;5.30;;
31238;SDS011;17871;31.584;74.450;2023-04-25T12:12:09;12.80;;;5.40;;
31238;SDS011;17871;31.584;74.450;2023-04-25T12:14:39;22.67;;;5.90;;
31238;SDS011;17871;31.584;74.450;2023-04-25T12:17:08;24.88;;;6.15;;
31238;SDS011;17871;31.584;74.450;2023-04-25T12:19:38;21.80;;;6.00;;
31238;SDS011;17871;31.584;74.450;2023-04-25T12:22:19;19.50;;;6.32;;
31238;SDS011;17871;31.584;74.450;2023-04-25T12:24:52;18.50;;;5.88;;
31238;SDS011;17871;31.584;74.450;2023-04-25T12:27:22;25.25;;;5.97;;
31238;SDS011;17871;31.584;74.450;2023-04-25T12:29:56;15.55;;;5.55;;
31238;SDS011;17871;31.584;74.450;2023-04-25T12:32:26;20.05;;;5.45;;
31238;SDS011;17871;31.584;74.450;2023-04-25T12:34:55;28.27;;;6.28;;
31238;SDS011;17871;31.584;74.450;2023-04-25T12:37:24;18.58;;;5.35;;
31238;SDS011;17871;31.584;74.450;2023-04-25T12:39:54;19.58;;;5.18;;
31238;SDS011;17871;31.584;74.450;2023-04-25T12:42:23;20.95;;;5.60;;
31238;SDS011;17871;31.584;74.450;2023-04-25T12:44:52;18.90;;;6.43;;
31238;SDS011;17871;31.584;74.450;2023-04-25T12:47:22;23.88;;;5.85;;
31238;SDS011;17871;31.584;74.450;2023-04-25T12:49:54;27.95;;;9.20;;
31238;SDS011;17871;31.584;74.450;2023-04-25T12:52:22;17.17;;;5.72;;
31238;SDS011;17871;31.584;74.450;2023-04-25T12:54:52;25.52;;;6.45;;
31238;SDS011;17871;31.584;74.450;2023-04-25T12:57:21;23.25;;;6.78;;
31238;SDS011;17871;31.584;74.450;2023-04-25T12:59:50;24.27;;;6.45;;
31238;SDS011;17871;31.584;74.450;2023-04-25T13:02:19;18.25;;;5.68;;
31238;SDS011;17871;31.584;74.450;2023-04-25T13:04:49;26.77;;;6.35;;
31238;SDS011;17871;31.584;74.450;2023-04-25T13:07:19;23.75;;;6.00;;
31238;SDS011;17871;31.584;74.450;2023-04-25T13:09:48;27.83;;;6.78;;
31238;SDS011;17871;31.584;74.450;2023-04-25T13:12:17;32.30;;;6.45;;
31238;SDS011;17871;31.584;74.450;2023-04-25T13:14:46;37.70;;;6.15;;
31238;SDS011;17871;31.584;74.450;2023-04-25T13:17:15;26.38;;;6.78;;
31238;SDS011;17871;31.584;74.450;2023-04-25T13:19:44;32.75;;;6.82;;
31238;SDS011;17871;31.584;74.450;2023-04-25T13:22:14;31.67;;;7.13;;
31238;SDS011;17871;31.584;74.450;2023-04-25T13:24:45;21.92;;;7.53;;
31238;SDS011;17871;31.584;74.450;2023-04-25T13:27:15;20.60;;;6.38;;
31238;SDS011;17871;31.584;74.450;2023-04-25T13:29:43;30.73;;;6.75;;
31238;SDS011;17871;31.584;74.450;2023-04-25T13:32:13;37.38;;;7.07;;
31238;SDS011;17871;31.584;74.450;2023-04-25T13:34:43;27.60;;;7.20;;
31238;SDS011;17871;31.584;74.450;2023-04-25T13:37:12;39.55;;;9.00;;
31238;SDS011;17871;31.584;74.450;2023-04-25T13:39:41;29.88;;;8.55;;
31238;SDS011;17871;31.584;74.450;2023-04-25T13:42:10;37.42;;;8.57;;
31238;SDS011;17871;31.584;74.450;2023-04-25T13:44:39;35.03;;;9.07;;
31238;SDS011;17871;31.584;74.450;2023-04-25T13:47:08;34.50;;;9.85;;
31238;SDS011;17871;31.584;74.450;2023-04-25T13:49:38;26.58;;;9.45;;
31238;SDS011;17871;31.584;74.450;2023-04-25T13:52:07;59.78;;;17.88;;
31238;SDS011;17871;31.584;74.450;2023-04-25T13:54:37;56.42;;;22.02;;
31238;SDS011;17871;31.584;74.450;2023-04-25T13:57:06;54.60;;;20.95;;
31238;SDS011;17871;31.584;74.450;2023-04-25T13:59:35;42.60;;;18.52;;
31238;SDS011;17871;31.584;74.450;2023-04-25T14:02:04;58.17;;;18.10;;
31238;SDS011;17871;31.584;74.450;2023-04-25T14:04:34;46.53;;;15.35;;
31238;SDS011;17871;31.584;74.450;2023-04-25T14:07:04;53.67;;;12.77;;
31238;SDS011;17871;31.584;74.450;2023-04-25T14:09:33;40.40;;;11.90;;
31238;SDS011;17871;31.584;74.450;2023-04-25T14:12:02;40.10;;;12.60;;
31238;SDS011;17871;31.584;74.450;2023-04-25T14:14:32;66.03;;;16.88;;
31238;SDS011;17871;31.584;74.450;2023-04-25T14:17:01;52.97;;;15.05;;
31238;SDS011;17871;31.584;74.450;2023-04-25T14:19:30;43.50;;;12.30;;
31238;SDS011;17871;31.584;74.450;2023-04-25T14:21:59;52.85;;;14.15;;
31238;SDS011;17871;31.584;74.450;2023-04-25T14:24:29;46.22;;;13.88;;
31238;SDS011;17871;31.584;74.450;2023-04-25T14:26:58;43.33;;;12.98;;
31238;SDS011;17871;31.584;74.450;2023-04-25T14:29:27;37.00;;;13.45;;
31238;SDS011;17871;31.584;74.450;2023-04-25T14:31:56;45.38;;;12.38;;
31238;SDS011;17871;31.584;74.450;2023-04-25T14:34:26;47.78;;;14.63;;
31238;SDS011;17871;31.584;74.450;2023-04-25T14:36:55;37.42;;;11.90;;
31238;SDS011;17871;31.584;74.450;2023-04-25T14:39:25;53.72;;;14.15;;
31238;SDS011;17871;31.584;74.450;2023-04-25T14:41:54;42.25;;;12.57;;
31238;SDS011;17871;31.584;74.450;2023-04-25T14:44:24;42.53;;;11.88;;
31238;SDS011;17871;31.584;74.450;2023-04-25T14:46:54;41.35;;;12.80;;
31238;SDS011;17871;31.584;74.450;2023-04-25T14:49:24;52.83;;;12.48;;
31238;SDS011;17871;31.584;74.450;2023-04-25T14:51:53;40.60;;;11.07;;
31238;SDS011;17871;31.584;74.450;2023-04-25T14:54:22;45.53;;;13.02;;
31238;SDS011;17871;31.584;74.450;2023-04-25T14:56:52;52.90;;;13.10;;
31238;SDS011;17871;31.584;74.450;2023-04-25T14:59:21;51.53;;;12.93;;
31238;SDS011;17871;31.584;74.450;2023-04-25T15:01:50;51.42;;;14.52;;
31238;SDS011;17871;31.584;74.450;2023-04-25T15:04:19;64.40;;;22.27;;
31238;SDS011;17871;31.584;74.450;2023-04-25T15:06:49;73.95;;;20.80;;
31238;SDS011;17871;31.584;74.450;2023-04-25T15:09:18;73.25;;;22.15;;
31238;SDS011;17871;31.584;74.450;2023-04-25T15:11:47;137.82;;;54.60;;
31238;SDS011;17871;31.584;74.450;2023-04-25T15:14:19;128.35;;;56.25;;
31238;SDS011;17871;31.584;74.450;2023-04-25T15:16:48;109.90;;;42.35;;